首页
METAR-TAF:

METAR-TAF

机场 :

Northway, 阿拉斯加州, 美国

纬度: 62-57-40N, 经度: 141-55-44W, 海拔: 523米

当前天气观测

该预报发布于12分钟前的08:53 UTC
静风
温度 -3°C
湿度 80%
气压 988 hPa
能見度: 16.1公里
阴天层高于1700英尺

METAR: PAOR 170853Z 00000KT 10SM OVC017 M03/M06 A2918 RMK AO2 SLP913 T10331056 410221072 56006 PNO

时间: 01:05 (09:05 UTC)

预报

该预报发布于3小时和39分钟前的05:26 UTC
预报有效从17日的 06点(UTC)到 18日的 06点(UTC)
风速3节,风向多变
能見度: 10公里
阴天层高于2000英尺
从 17日的 1600点(UTC)
风速3节,风向多变
能見度: 10公里
阴天层高于800英尺
从 17日的 2300点(UTC)
风速3节,风向多变
能見度: 10公里
阴天层高于2500英尺

TAF: PAOR 170526Z 1706/1806 VRB03KT P6SM OVC020 FM171600 VRB03KT P6SM OVC008 FM172300 VRB03KT P6SM OVC025

超过4000个机场的气象观测和天气预报(METAR&TAF报告)。

可查询的气象台以黄色和红色小点在地图上表示。

将鼠标移到小点上方,可查看气象台名称。

然后点击查看天气观测和预报。

如需切换地图:点击带黑十字的绿色按钮放大地图;点击带横线的绿色按钮缩小地图;或者点击绿色箭头查看邻近地区的地图。


METAR-TAF: